sensor_id;sensor_type;location;lat;lon;timestamp;P1;durP1;ratioP1;P2;durP2;ratioP2
2624;SDS011;1322;53.256;10.386;2023-01-10T00:00:11;20.80;;;13.13;;
2624;SDS011;1322;53.256;10.386;2023-01-10T00:02:37;21.63;;;12.70;;
2624;SDS011;1322;53.256;10.386;2023-01-10T00:05:03;28.83;;;13.23;;
2624;SDS011;1322;53.256;10.386;2023-01-10T00:07:29;25.33;;;12.60;;
2624;SDS011;1322;53.256;10.386;2023-01-10T00:09:55;16.43;;;11.07;;
2624;SDS011;1322;53.256;10.386;2023-01-10T00:20:26;22.67;;;11.90;;
2624;SDS011;1322;53.256;10.386;2023-01-10T00:22:52;16.23;;;10.73;;
2624;SDS011;1322;53.256;10.386;2023-01-10T00:25:18;20.03;;;10.40;;
2624;SDS011;1322;53.256;10.386;2023-01-10T00:27:45;24.57;;;9.53;;
2624;SDS011;1322;53.256;10.386;2023-01-10T00:30:17;18.63;;;11.40;;
2624;SDS011;1322;53.256;10.386;2023-01-10T00:32:44;19.63;;;10.90;;
2624;SDS011;1322;53.256;10.386;2023-01-10T00:35:10;16.90;;;10.13;;
2624;SDS011;1322;53.256;10.386;2023-01-10T00:37:37;15.33;;;10.20;;
2624;SDS011;1322;53.256;10.386;2023-01-10T00:40:04;19.90;;;10.60;;
2624;SDS011;1322;53.256;10.386;2023-01-10T00:42:33;22.70;;;11.60;;
2624;SDS011;1322;53.256;10.386;2023-01-10T00:45:18;14.37;;;10.30;;
2624;SDS011;1322;53.256;10.386;2023-01-10T00:47:44;14.73;;;10.43;;
2624;SDS011;1322;53.256;10.386;2023-01-10T00:50:09;18.50;;;10.50;;
2624;SDS011;1322;53.256;10.386;2023-01-10T00:52:36;18.87;;;9.70;;
2624;SDS011;1322;53.256;10.386;2023-01-10T00:55:01;19.80;;;11.03;;
2624;SDS011;1322;53.256;10.386;2023-01-10T00:57:28;12.50;;;10.50;;
2624;SDS011;1322;53.256;10.386;2023-01-10T00:59:53;20.13;;;10.00;;
2624;SDS011;1322;53.256;10.386;2023-01-10T01:02:19;20.03;;;10.37;;
2624;SDS011;1322;53.256;10.386;2023-01-10T01:04:45;12.10;;;9.23;;
2624;SDS011;1322;53.256;10.386;2023-01-10T01:07:10;19.90;;;9.70;;
2624;SDS011;1322;53.256;10.386;2023-01-10T01:09:36;17.27;;;9.50;;
2624;SDS011;1322;53.256;10.386;2023-01-10T01:12:21;21.83;;;8.53;;
2624;SDS011;1322;53.256;10.386;2023-01-10T01:14:47;14.03;;;9.07;;
2624;SDS011;1322;53.256;10.386;2023-01-10T01:17:13;14.60;;;9.07;;
2624;SDS011;1322;53.256;10.386;2023-01-10T01:19:38;16.10;;;9.03;;
2624;SDS011;1322;53.256;10.386;2023-01-10T01:22:04;17.43;;;9.67;;
2624;SDS011;1322;53.256;10.386;2023-01-10T01:24:29;16.57;;;8.30;;
2624;SDS011;1322;53.256;10.386;2023-01-10T01:26:55;18.07;;;8.30;;
2624;SDS011;1322;53.256;10.386;2023-01-10T01:29:20;15.90;;;9.03;;
2624;SDS011;1322;53.256;10.386;2023-01-10T01:31:46;13.90;;;8.77;;
2624;SDS011;1322;53.256;10.386;2023-01-10T01:34:12;19.63;;;9.53;;
2624;SDS011;1322;53.256;10.386;2023-01-10T01:36:38;13.53;;;8.90;;
2624;SDS011;1322;53.256;10.386;2023-01-10T01:39:04;18.77;;;10.20;;
2624;SDS011;1322;53.256;10.386;2023-01-10T01:41:30;16.63;;;9.73;;
2624;SDS011;1322;53.256;10.386;2023-01-10T01:44:14;16.37;;;9.83;;
2624;SDS011;1322;53.256;10.386;2023-01-10T01:46:43;16.07;;;8.47;;
2624;SDS011;1322;53.256;10.386;2023-01-10T01:49:18;14.63;;;8.70;;
2624;SDS011;1322;53.256;10.386;2023-01-10T01:51:48;21.83;;;11.17;;
2624;SDS011;1322;53.256;10.386;2023-01-10T01:54:16;18.93;;;8.30;;
2624;SDS011;1322;53.256;10.386;2023-01-10T01:59:29;17.60;;;9.70;;
2624;SDS011;1322;53.256;10.386;2023-01-10T02:02:08;15.00;;;9.23;;
2624;SDS011;1322;53.256;10.386;2023-01-10T02:07:30;12.83;;;9.03;;
2624;SDS011;1322;53.256;10.386;2023-01-10T02:12:34;16.70;;;8.47;;
2624;SDS011;1322;53.256;10.386;2023-01-10T02:15:01;18.40;;;8.37;;
2624;SDS011;1322;53.256;10.386;2023-01-10T02:17:27;17.53;;;8.43;;
2624;SDS011;1322;53.256;10.386;2023-01-10T02:19:57;19.57;;;8.63;;
2624;SDS011;1322;53.256;10.386;2023-01-10T02:25:30;15.50;;;9.13;;
2624;SDS011;1322;53.256;10.386;2023-01-10T02:31:25;14.93;;;9.60;;
2624;SDS011;1322;53.256;10.386;2023-01-10T02:33:46;11.63;;;8.00;;
2624;SDS011;1322;53.256;10.386;2023-01-10T02:36:19;14.10;;;8.03;;
2624;SDS011;1322;53.256;10.386;2023-01-10T02:39:01;20.70;;;7.90;;
2624;SDS011;1322;53.256;10.386;2023-01-10T02:41:44;16.13;;;8.67;;
2624;SDS011;1322;53.256;10.386;2023-01-10T02:47:06;13.40;;;9.37;;
2624;SDS011;1322;53.256;10.386;2023-01-10T02:49:42;15.77;;;7.70;;
2624;SDS011;1322;53.256;10.386;2023-01-10T02:52:10;16.23;;;8.63;;
2624;SDS011;1322;53.256;10.386;2023-01-10T02:54:38;12.57;;;9.13;;
2624;SDS011;1322;53.256;10.386;2023-01-10T03:04:56;13.83;;;10.17;;
2624;SDS011;1322;53.256;10.386;2023-01-10T03:07:34;26.23;;;11.70;;
2624;SDS011;1322;53.256;10.386;2023-01-10T03:10:15;16.13;;;9.80;;
2624;SDS011;1322;53.256;10.386;2023-01-10T03:12:57;15.10;;;10.73;;
2624;SDS011;1322;53.256;10.386;2023-01-10T03:15:45;17.93;;;10.40;;
2624;SDS011;1322;53.256;10.386;2023-01-10T03:18:15;24.07;;;12.30;;
2624;SDS011;1322;53.256;10.386;2023-01-10T03:20:45;17.67;;;10.70;;
2624;SDS011;1322;53.256;10.386;2023-01-10T03:23:14;17.27;;;10.77;;
2624;SDS011;1322;53.256;10.386;2023-01-10T03:25:41;22.53;;;10.93;;
2624;SDS011;1322;53.256;10.386;2023-01-10T03:28:15;16.70;;;11.07;;
2624;SDS011;1322;53.256;10.386;2023-01-10T03:30:48;15.10;;;10.23;;
2624;SDS011;1322;53.256;10.386;2023-01-10T03:33:34;17.10;;;10.17;;
2624;SDS011;1322;53.256;10.386;2023-01-10T03:36:06;13.77;;;9.27;;
2624;SDS011;1322;53.256;10.386;2023-01-10T03:47:12;13.40;;;7.60;;
2624;SDS011;1322;53.256;10.386;2023-01-10T03:49:55;9.60;;;8.37;;
2624;SDS011;1322;53.256;10.386;2023-01-10T03:52:27;11.70;;;7.50;;
2624;SDS011;1322;53.256;10.386;2023-01-10T03:54:54;17.90;;;8.03;;
2624;SDS011;1322;53.256;10.386;2023-01-10T03:57:23;15.37;;;8.67;;
2624;SDS011;1322;53.256;10.386;2023-01-10T03:59:50;12.00;;;8.17;;
2624;SDS011;1322;53.256;10.386;2023-01-10T04:02:17;11.33;;;8.07;;
2624;SDS011;1322;53.256;10.386;2023-01-10T04:04:43;11.73;;;8.53;;
2624;SDS011;1322;53.256;10.386;2023-01-10T04:07:09;15.13;;;8.53;;
2624;SDS011;1322;53.256;10.386;2023-01-10T04:09:35;16.77;;;8.93;;
2624;SDS011;1322;53.256;10.386;2023-01-10T04:12:00;11.57;;;7.83;;
2624;SDS011;1322;53.256;10.386;2023-01-10T04:14:27;12.70;;;7.77;;
2624;SDS011;1322;53.256;10.386;2023-01-10T04:16:54;10.90;;;7.40;;
2624;SDS011;1322;53.256;10.386;2023-01-10T04:19:20;12.70;;;8.03;;
2624;SDS011;1322;53.256;10.386;2023-01-10T04:21:45;9.60;;;7.50;;
2624;SDS011;1322;53.256;10.386;2023-01-10T04:24:11;13.17;;;9.20;;
2624;SDS011;1322;53.256;10.386;2023-01-10T04:26:37;10.40;;;7.53;;
2624;SDS011;1322;53.256;10.386;2023-01-10T04:29:03;12.90;;;7.47;;
2624;SDS011;1322;53.256;10.386;2023-01-10T04:31:30;8.53;;;7.47;;
2624;SDS011;1322;53.256;10.386;2023-01-10T04:33:55;13.67;;;7.40;;
2624;SDS011;1322;53.256;10.386;2023-01-10T04:36:21;13.53;;;8.30;;
2624;SDS011;1322;53.256;10.386;2023-01-10T04:38:47;14.23;;;8.23;;
2624;SDS011;1322;53.256;10.386;2023-01-10T04:41:12;14.20;;;7.80;;
2624;SDS011;1322;53.256;10.386;2023-01-10T04:43:38;17.07;;;8.63;;
2624;SDS011;1322;53.256;10.386;2023-01-10T04:46:03;12.30;;;7.93;;
2624;SDS011;1322;53.256;10.386;2023-01-10T04:48:29;14.93;;;9.87;;
2624;SDS011;1322;53.256;10.386;2023-01-10T04:50:55;14.20;;;7.93;;
2624;SDS011;1322;53.256;10.386;2023-01-10T04:53:21;19.43;;;9.43;;
2624;SDS011;1322;53.256;10.386;2023-01-10T04:55:47;23.13;;;8.60;;
2624;SDS011;1322;53.256;10.386;2023-01-10T04:58:13;13.80;;;7.93;;
2624;SDS011;1322;53.256;10.386;2023-01-10T05:00:39;9.20;;;7.70;;
2624;SDS011;1322;53.256;10.386;2023-01-10T05:03:05;13.53;;;8.27;;
2624;SDS011;1322;53.256;10.386;2023-01-10T05:05:30;14.60;;;7.97;;
2624;SDS011;1322;53.256;10.386;2023-01-10T05:07:56;19.93;;;9.03;;
2624;SDS011;1322;53.256;10.386;2023-01-10T05:10:22;12.93;;;8.17;;
2624;SDS011;1322;53.256;10.386;2023-01-10T05:12:48;13.83;;;7.97;;
2624;SDS011;1322;53.256;10.386;2023-01-10T05:15:14;13.17;;;7.50;;
2624;SDS011;1322;53.256;10.386;2023-01-10T05:17:39;17.07;;;7.77;;
2624;SDS011;1322;53.256;10.386;2023-01-10T05:20:05;13.80;;;7.13;;
2624;SDS011;1322;53.256;10.386;2023-01-10T05:22:32;10.70;;;7.77;;
2624;SDS011;1322;53.256;10.386;2023-01-10T05:24:58;13.40;;;7.10;;
2624;SDS011;1322;53.256;10.386;2023-01-10T05:27:23;15.03;;;6.37;;
2624;SDS011;1322;53.256;10.386;2023-01-10T05:29:49;9.63;;;6.00;;
2624;SDS011;1322;53.256;10.386;2023-01-10T05:32:15;10.87;;;7.17;;
2624;SDS011;1322;53.256;10.386;2023-01-10T05:34:41;14.20;;;6.37;;
2624;SDS011;1322;53.256;10.386;2023-01-10T05:37:06;14.83;;;7.10;;
2624;SDS011;1322;53.256;10.386;2023-01-10T05:39:32;12.67;;;7.20;;
2624;SDS011;1322;53.256;10.386;2023-01-10T05:41:58;12.50;;;6.57;;
2624;SDS011;1322;53.256;10.386;2023-01-10T05:44:24;11.47;;;5.60;;
2624;SDS011;1322;53.256;10.386;2023-01-10T05:46:50;15.10;;;6.60;;
2624;SDS011;1322;53.256;10.386;2023-01-10T05:49:15;14.17;;;5.83;;
2624;SDS011;1322;53.256;10.386;2023-01-10T05:51:41;10.00;;;6.17;;
2624;SDS011;1322;53.256;10.386;2023-01-10T05:54:07;15.87;;;6.77;;
2624;SDS011;1322;53.256;10.386;2023-01-10T05:56:33;11.60;;;6.60;;
2624;SDS011;1322;53.256;10.386;2023-01-10T05:58:59;13.00;;;6.67;;
2624;SDS011;1322;53.256;10.386;2023-01-10T06:01:24;8.47;;;4.67;;
2624;SDS011;1322;53.256;10.386;2023-01-10T06:03:50;8.90;;;5.47;;
2624;SDS011;1322;53.256;10.386;2023-01-10T06:06:16;10.60;;;5.73;;
2624;SDS011;1322;53.256;10.386;2023-01-10T06:08:41;16.53;;;5.73;;
2624;SDS011;1322;53.256;10.386;2023-01-10T06:11:07;13.10;;;5.70;;
2624;SDS011;1322;53.256;10.386;2023-01-10T06:13:32;11.50;;;7.50;;
2624;SDS011;1322;53.256;10.386;2023-01-10T06:15:58;9.33;;;5.13;;
2624;SDS011;1322;53.256;10.386;2023-01-10T06:18:24;10.30;;;4.93;;
2624;SDS011;1322;53.256;10.386;2023-01-10T06:20:50;9.67;;;5.63;;
2624;SDS011;1322;53.256;10.386;2023-01-10T06:23:16;28.47;;;6.77;;
2624;SDS011;1322;53.256;10.386;2023-01-10T06:25:42;14.03;;;6.20;;
2624;SDS011;1322;53.256;10.386;2023-01-10T06:28:08;9.63;;;5.73;;
2624;SDS011;1322;53.256;10.386;2023-01-10T06:30:35;13.67;;;5.30;;
2624;SDS011;1322;53.256;10.386;2023-01-10T06:33:04;19.40;;;6.00;;
2624;SDS011;1322;53.256;10.386;2023-01-10T06:35:31;16.00;;;6.20;;
2624;SDS011;1322;53.256;10.386;2023-01-10T06:37:57;7.30;;;4.47;;
2624;SDS011;1322;53.256;10.386;2023-01-10T06:40:23;13.97;;;6.10;;
2624;SDS011;1322;53.256;10.386;2023-01-10T06:42:50;14.70;;;5.10;;
2624;SDS011;1322;53.256;10.386;2023-01-10T06:45:15;11.67;;;5.50;;
2624;SDS011;1322;53.256;10.386;2023-01-10T06:47:41;12.73;;;5.70;;
2624;SDS011;1322;53.256;10.386;2023-01-10T06:50:07;11.90;;;5.47;;
2624;SDS011;1322;53.256;10.386;2023-01-10T06:52:33;18.13;;;4.43;;
2624;SDS011;1322;53.256;10.386;2023-01-10T06:54:59;13.67;;;5.80;;
2624;SDS011;1322;53.256;10.386;2023-01-10T06:57:24;14.50;;;5.00;;
2624;SDS011;1322;53.256;10.386;2023-01-10T06:59:52;7.97;;;4.47;;
2624;SDS011;1322;53.256;10.386;2023-01-10T07:02:18;10.83;;;4.87;;
2624;SDS011;1322;53.256;10.386;2023-01-10T07:04:44;10.07;;;4.93;;
2624;SDS011;1322;53.256;10.386;2023-01-10T07:07:09;17.63;;;5.20;;
2624;SDS011;1322;53.256;10.386;2023-01-10T07:09:35;13.60;;;4.63;;
2624;SDS011;1322;53.256;10.386;2023-01-10T07:12:00;10.43;;;5.30;;
2624;SDS011;1322;53.256;10.386;2023-01-10T07:14:26;10.10;;;4.60;;
2624;SDS011;1322;53.256;10.386;2023-01-10T07:16:52;10.83;;;4.80;;
2624;SDS011;1322;53.256;10.386;2023-01-10T07:19:17;9.70;;;4.33;;
2624;SDS011;1322;53.256;10.386;2023-01-10T07:21:44;9.03;;;4.43;;
2624;SDS011;1322;53.256;10.386;2023-01-10T07:24:10;41.50;;;21.03;;
2624;SDS011;1322;53.256;10.386;2023-01-10T07:26:36;14.37;;;5.63;;
2624;SDS011;1322;53.256;10.386;2023-01-10T07:29:01;9.20;;;5.10;;
2624;SDS011;1322;53.256;10.386;2023-01-10T07:31:27;15.93;;;4.77;;
2624;SDS011;1322;53.256;10.386;2023-01-10T07:33:53;8.53;;;4.20;;
2624;SDS011;1322;53.256;10.386;2023-01-10T07:36:18;10.97;;;5.13;;
2624;SDS011;1322;53.256;10.386;2023-01-10T07:38:44;7.60;;;4.53;;
2624;SDS011;1322;53.256;10.386;2023-01-10T07:41:10;7.73;;;3.87;;
2624;SDS011;1322;53.256;10.386;2023-01-10T07:43:35;10.37;;;3.70;;
2624;SDS011;1322;53.256;10.386;2023-01-10T07:46:05;9.30;;;5.00;;
2624;SDS011;1322;53.256;10.386;2023-01-10T07:48:36;17.63;;;5.30;;
2624;SDS011;1322;53.256;10.386;2023-01-10T07:51:03;10.63;;;5.40;;
2624;SDS011;1322;53.256;10.386;2023-01-10T07:53:29;11.57;;;4.93;;
2624;SDS011;1322;53.256;10.386;2023-01-10T07:55:59;11.07;;;5.50;;
2624;SDS011;1322;53.256;10.386;2023-01-10T07:58:26;21.27;;;5.93;;
2624;SDS011;1322;53.256;10.386;2023-01-10T08:00:56;16.30;;;5.47;;
2624;SDS011;1322;53.256;10.386;2023-01-10T08:03:26;11.80;;;6.03;;
2624;SDS011;1322;53.256;10.386;2023-01-10T08:05:57;9.27;;;4.93;;
2624;SDS011;1322;53.256;10.386;2023-01-10T08:08:27;14.17;;;5.03;;
2624;SDS011;1322;53.256;10.386;2023-01-10T08:10:54;15.07;;;5.67;;
2624;SDS011;1322;53.256;10.386;2023-01-10T08:13:20;12.93;;;4.33;;
2624;SDS011;1322;53.256;10.386;2023-01-10T08:15:47;13.07;;;5.30;;
2624;SDS011;1322;53.256;10.386;2023-01-10T08:18:15;13.90;;;4.47;;
2624;SDS011;1322;53.256;10.386;2023-01-10T08:20:41;13.60;;;5.40;;
2624;SDS011;1322;53.256;10.386;2023-01-10T08:23:06;12.57;;;5.57;;
2624;SDS011;1322;53.256;10.386;2023-01-10T08:25:32;16.00;;;6.10;;
2624;SDS011;1322;53.256;10.386;2023-01-10T08:27:58;16.50;;;6.63;;
2624;SDS011;1322;53.256;10.386;2023-01-10T08:30:23;13.30;;;5.70;;
2624;SDS011;1322;53.256;10.386;2023-01-10T08:32:49;15.33;;;6.27;;
2624;SDS011;1322;53.256;10.386;2023-01-10T08:35:16;30.77;;;17.70;;
2624;SDS011;1322;53.256;10.386;2023-01-10T08:37:42;27.27;;;9.77;;
2624;SDS011;1322;53.256;10.386;2023-01-10T08:40:08;17.13;;;8.10;;
2624;SDS011;1322;53.256;10.386;2023-01-10T08:42:34;11.93;;;5.93;;
2624;SDS011;1322;53.256;10.386;2023-01-10T08:44:59;16.00;;;7.17;;
2624;SDS011;1322;53.256;10.386;2023-01-10T08:47:25;19.37;;;7.63;;
2624;SDS011;1322;53.256;10.386;2023-01-10T08:49:52;15.90;;;6.50;;
2624;SDS011;1322;53.256;10.386;2023-01-10T08:52:17;20.13;;;6.30;;
2624;SDS011;1322;53.256;10.386;2023-01-10T08:54:43;17.10;;;6.50;;
2624;SDS011;1322;53.256;10.386;2023-01-10T08:57:09;10.87;;;5.77;;
2624;SDS011;1322;53.256;10.386;2023-01-10T08:59:34;15.60;;;8.30;;
2624;SDS011;1322;53.256;10.386;2023-01-10T09:02:00;14.37;;;5.30;;
2624;SDS011;1322;53.256;10.386;2023-01-10T09:04:26;12.07;;;5.70;;
2624;SDS011;1322;53.256;10.386;2023-01-10T09:06:53;11.57;;;5.77;;
2624;SDS011;1322;53.256;10.386;2023-01-10T09:09:19;11.13;;;5.57;;
2624;SDS011;1322;53.256;10.386;2023-01-10T09:11:44;10.37;;;5.33;;
2624;SDS011;1322;53.256;10.386;2023-01-10T09:14:10;11.13;;;5.60;;
2624;SDS011;1322;53.256;10.386;2023-01-10T09:16:36;15.93;;;5.77;;
2624;SDS011;1322;53.256;10.386;2023-01-10T09:19:02;13.53;;;5.10;;
2624;SDS011;1322;53.256;10.386;2023-01-10T09:21:27;11.60;;;5.73;;
2624;SDS011;1322;53.256;10.386;2023-01-10T09:23:53;9.10;;;5.43;;
2624;SDS011;1322;53.256;10.386;2023-01-10T09:26:19;17.03;;;5.47;;
2624;SDS011;1322;53.256;10.386;2023-01-10T09:28:45;15.40;;;6.13;;
2624;SDS011;1322;53.256;10.386;2023-01-10T09:31:11;17.27;;;5.63;;
2624;SDS011;1322;53.256;10.386;2023-01-10T09:33:37;16.90;;;5.90;;
2624;SDS011;1322;53.256;10.386;2023-01-10T09:36:05;10.40;;;5.60;;
2624;SDS011;1322;53.256;10.386;2023-01-10T09:38:31;16.33;;;5.43;;
2624;SDS011;1322;53.256;10.386;2023-01-10T09:40:59;15.87;;;5.83;;
2624;SDS011;1322;53.256;10.386;2023-01-10T09:54:09;17.60;;;5.30;;
2624;SDS011;1322;53.256;10.386;2023-01-10T09:56:39;9.27;;;5.80;;
2624;SDS011;1322;53.256;10.386;2023-01-10T09:59:05;12.97;;;5.20;;
2624;SDS011;1322;53.256;10.386;2023-01-10T10:01:37;11.47;;;6.90;;
2624;SDS011;1322;53.256;10.386;2023-01-10T10:06:50;18.00;;;5.90;;
2624;SDS011;1322;53.256;10.386;2023-01-10T10:09:19;11.40;;;5.10;;
2624;SDS011;1322;53.256;10.386;2023-01-10T10:12:06;13.10;;;6.70;;
2624;SDS011;1322;53.256;10.386;2023-01-10T10:20:57;9.90;;;5.30;;
2624;SDS011;1322;53.256;10.386;2023-01-10T10:31:50;12.70;;;6.63;;
2624;SDS011;1322;53.256;10.386;2023-01-10T10:34:33;11.53;;;6.07;;
2624;SDS011;1322;53.256;10.386;2023-01-10T10:37:04;10.70;;;5.40;;
2624;SDS011;1322;53.256;10.386;2023-01-10T10:42:09;17.90;;;6.73;;
2624;SDS011;1322;53.256;10.386;2023-01-10T10:44:44;7.30;;;5.10;;
2624;SDS011;1322;53.256;10.386;2023-01-10T10:47:22;18.10;;;5.67;;
2624;SDS011;1322;53.256;10.386;2023-01-10T10:52:25;10.27;;;5.13;;
2624;SDS011;1322;53.256;10.386;2023-01-10T10:54:54;11.37;;;5.50;;
2624;SDS011;1322;53.256;10.386;2023-01-10T10:57:21;11.10;;;5.80;;
2624;SDS011;1322;53.256;10.386;2023-01-10T10:59:51;14.83;;;6.47;;
2624;SDS011;1322;53.256;10.386;2023-01-10T11:02:20;13.93;;;5.97;;
2624;SDS011;1322;53.256;10.386;2023-01-10T11:04:51;19.73;;;6.87;;
2624;SDS011;1322;53.256;10.386;2023-01-10T11:07:20;14.67;;;6.20;;
2624;SDS011;1322;53.256;10.386;2023-01-10T11:09:46;18.47;;;6.43;;
2624;SDS011;1322;53.256;10.386;2023-01-10T11:12:38;7.30;;;5.03;;
2624;SDS011;1322;53.256;10.386;2023-01-10T11:15:09;12.10;;;5.50;;
2624;SDS011;1322;53.256;10.386;2023-01-10T11:17:35;12.50;;;4.67;;
2624;SDS011;1322;53.256;10.386;2023-01-10T11:20:14;9.90;;;5.73;;
2624;SDS011;1322;53.256;10.386;2023-01-10T11:22:45;17.43;;;6.80;;
2624;SDS011;1322;53.256;10.386;2023-01-10T11:25:15;17.50;;;5.60;;
2624;SDS011;1322;53.256;10.386;2023-01-10T11:27:46;13.00;;;5.67;;
2624;SDS011;1322;53.256;10.386;2023-01-10T11:30:16;14.57;;;5.53;;
2624;SDS011;1322;53.256;10.386;2023-01-10T11:32:57;13.20;;;6.53;;
2624;SDS011;1322;53.256;10.386;2023-01-10T11:35:33;13.53;;;7.17;;
2624;SDS011;1322;53.256;10.386;2023-01-10T11:38:20;17.67;;;6.17;;
2624;SDS011;1322;53.256;10.386;2023-01-10T11:41:01;18.30;;;7.30;;
2624;SDS011;1322;53.256;10.386;2023-01-10T11:43:46;17.17;;;5.77;;
2624;SDS011;1322;53.256;10.386;2023-01-10T11:51:19;18.33;;;6.47;;
2624;SDS011;1322;53.256;10.386;2023-01-10T11:54:33;16.47;;;7.33;;
2624;SDS011;1322;53.256;10.386;2023-01-10T11:56:42;12.13;;;5.33;;
2624;SDS011;1322;53.256;10.386;2023-01-10T11:59:32;8.10;;;4.97;;
2624;SDS011;1322;53.256;10.386;2023-01-10T12:04:30;14.67;;;8.00;;
2624;SDS011;1322;53.256;10.386;2023-01-10T12:07:05;11.43;;;6.33;;
2624;SDS011;1322;53.256;10.386;2023-01-10T12:09:39;15.90;;;6.40;;
2624;SDS011;1322;53.256;10.386;2023-01-10T12:12:16;11.40;;;6.40;;
2624;SDS011;1322;53.256;10.386;2023-01-10T12:14:44;10.17;;;5.47;;
2624;SDS011;1322;53.256;10.386;2023-01-10T12:17:21;14.70;;;5.97;;
2624;SDS011;1322;53.256;10.386;2023-01-10T12:19:59;16.20;;;6.07;;
2624;SDS011;1322;53.256;10.386;2023-01-10T12:22:38;17.43;;;6.50;;
2624;SDS011;1322;53.256;10.386;2023-01-10T12:25:14;10.53;;;6.07;;
2624;SDS011;1322;53.256;10.386;2023-01-10T12:27:42;5.90;;;4.93;;
2624;SDS011;1322;53.256;10.386;2023-01-10T12:30:22;13.80;;;5.77;;
2624;SDS011;1322;53.256;10.386;2023-01-10T12:32:55;13.10;;;5.93;;
2624;SDS011;1322;53.256;10.386;2023-01-10T12:38:21;13.70;;;6.20;;
2624;SDS011;1322;53.256;10.386;2023-01-10T12:41:15;15.43;;;5.80;;
2624;SDS011;1322;53.256;10.386;2023-01-10T12:44:11;12.77;;;6.60;;
2624;SDS011;1322;53.256;10.386;2023-01-10T12:46:49;12.70;;;6.17;;
2624;SDS011;1322;53.256;10.386;2023-01-10T12:51:50;13.93;;;6.73;;
2624;SDS011;1322;53.256;10.386;2023-01-10T12:54:22;13.93;;;6.97;;
2624;SDS011;1322;53.256;10.386;2023-01-10T12:56:50;15.23;;;6.13;;
2624;SDS011;1322;53.256;10.386;2023-01-10T12:59:21;19.90;;;6.43;;
2624;SDS011;1322;53.256;10.386;2023-01-10T13:01:52;20.60;;;7.03;;
2624;SDS011;1322;53.256;10.386;2023-01-10T13:04:20;11.57;;;6.40;;
2624;SDS011;1322;53.256;10.386;2023-01-10T13:06:50;15.53;;;6.20;;
2624;SDS011;1322;53.256;10.386;2023-01-10T13:09:18;10.17;;;5.27;;
2624;SDS011;1322;53.256;10.386;2023-01-10T13:11:54;14.23;;;7.43;;
2624;SDS011;1322;53.256;10.386;2023-01-10T13:14:26;11.73;;;5.83;;
2624;SDS011;1322;53.256;10.386;2023-01-10T13:16:57;11.03;;;4.73;;
2624;SDS011;1322;53.256;10.386;2023-01-10T13:22:48;16.93;;;6.40;;
2624;SDS011;1322;53.256;10.386;2023-01-10T13:25:20;11.63;;;5.50;;
2624;SDS011;1322;53.256;10.386;2023-01-10T13:30:40;24.60;;;7.43;;
2624;SDS011;1322;53.256;10.386;2023-01-10T13:33:06;17.03;;;6.60;;
2624;SDS011;1322;53.256;10.386;2023-01-10T13:35:55;16.43;;;8.07;;
2624;SDS011;1322;53.256;10.386;2023-01-10T13:39:03;15.80;;;6.20;;
2624;SDS011;1322;53.256;10.386;2023-01-10T13:41:23;17.20;;;6.40;;
2624;SDS011;1322;53.256;10.386;2023-01-10T13:44:27;11.90;;;5.70;;
2624;SDS011;1322;53.256;10.386;2023-01-10T13:46:52;10.47;;;5.30;;
2624;SDS011;1322;53.256;10.386;2023-01-10T13:49:25;15.33;;;5.90;;
2624;SDS011;1322;53.256;10.386;2023-01-10T13:54:58;14.93;;;6.17;;
2624;SDS011;1322;53.256;10.386;2023-01-10T14:00:20;19.97;;;5.83;;
2624;SDS011;1322;53.256;10.386;2023-01-10T14:03:34;13.90;;;5.60;;
2624;SDS011;1322;53.256;10.386;2023-01-10T14:06:09;22.20;;;12.50;;
2624;SDS011;1322;53.256;10.386;2023-01-10T14:08:47;17.10;;;5.63;;
2624;SDS011;1322;53.256;10.386;2023-01-10T14:11:17;10.00;;;5.50;;
2624;SDS011;1322;53.256;10.386;2023-01-10T14:13:55;10.47;;;5.50;;
2624;SDS011;1322;53.256;10.386;2023-01-10T14:18:57;12.10;;;6.90;;
2624;SDS011;1322;53.256;10.386;2023-01-10T14:21:24;15.43;;;5.57;;
2624;SDS011;1322;53.256;10.386;2023-01-10T14:23:52;14.80;;;6.50;;
2624;SDS011;1322;53.256;10.386;2023-01-10T14:26:30;13.50;;;7.60;;
2624;SDS011;1322;53.256;10.386;2023-01-10T14:28:57;23.17;;;11.10;;
2624;SDS011;1322;53.256;10.386;2023-01-10T14:31:36;11.80;;;5.20;;
2624;SDS011;1322;53.256;10.386;2023-01-10T14:34:09;13.63;;;5.50;;
2624;SDS011;1322;53.256;10.386;2023-01-10T14:36:43;15.77;;;6.60;;
2624;SDS011;1322;53.256;10.386;2023-01-10T14:39:16;11.50;;;4.93;;
2624;SDS011;1322;53.256;10.386;2023-01-10T14:41:43;8.73;;;4.80;;
2624;SDS011;1322;53.256;10.386;2023-01-10T14:46:54;12.57;;;6.20;;
2624;SDS011;1322;53.256;10.386;2023-01-10T14:51:53;12.03;;;4.90;;
2624;SDS011;1322;53.256;10.386;2023-01-10T14:54:34;14.53;;;6.20;;
2624;SDS011;1322;53.256;10.386;2023-01-10T14:57:00;14.93;;;5.90;;
2624;SDS011;1322;53.256;10.386;2023-01-10T14:59:26;15.97;;;7.60;;
2624;SDS011;1322;53.256;10.386;2023-01-10T15:01:54;17.63;;;7.90;;
2624;SDS011;1322;53.256;10.386;2023-01-10T15:04:46;13.50;;;7.47;;
2624;SDS011;1322;53.256;10.386;2023-01-10T15:07:19;17.87;;;9.53;;
2624;SDS011;1322;53.256;10.386;2023-01-10T15:09:49;17.03;;;6.63;;
2624;SDS011;1322;53.256;10.386;2023-01-10T15:12:16;25.53;;;7.93;;
2624;SDS011;1322;53.256;10.386;2023-01-10T15:14:47;12.33;;;6.87;;
2624;SDS011;1322;53.256;10.386;2023-01-10T15:17:14;16.27;;;7.50;;
2624;SDS011;1322;53.256;10.386;2023-01-10T15:19:43;20.57;;;7.67;;
2624;SDS011;1322;53.256;10.386;2023-01-10T15:22:23;13.70;;;7.40;;
2624;SDS011;1322;53.256;10.386;2023-01-10T15:24:58;12.70;;;7.73;;
2624;SDS011;1322;53.256;10.386;2023-01-10T15:27:24;19.47;;;13.53;;
2624;SDS011;1322;53.256;10.386;2023-01-10T15:29:50;14.67;;;8.33;;
2624;SDS011;1322;53.256;10.386;2023-01-10T15:32:20;16.13;;;8.60;;
2624;SDS011;1322;53.256;10.386;2023-01-10T15:34:52;16.50;;;8.23;;
2624;SDS011;1322;53.256;10.386;2023-01-10T15:37:23;15.17;;;8.23;;
2624;SDS011;1322;53.256;10.386;2023-01-10T15:39:57;20.70;;;8.43;;
2624;SDS011;1322;53.256;10.386;2023-01-10T15:42:23;21.17;;;6.97;;
2624;SDS011;1322;53.256;10.386;2023-01-10T15:44:50;15.43;;;8.10;;
2624;SDS011;1322;53.256;10.386;2023-01-10T15:50:01;19.27;;;10.37;;
2624;SDS011;1322;53.256;10.386;2023-01-10T15:52:47;13.70;;;7.50;;
2624;SDS011;1322;53.256;10.386;2023-01-10T16:00:48;15.27;;;8.90;;
2624;SDS011;1322;53.256;10.386;2023-01-10T16:03:23;11.63;;;7.67;;
2624;SDS011;1322;53.256;10.386;2023-01-10T16:05:57;13.30;;;7.80;;
2624;SDS011;1322;53.256;10.386;2023-01-10T16:08:24;20.33;;;8.23;;
2624;SDS011;1322;53.256;10.386;2023-01-10T16:10:56;20.13;;;8.90;;
2624;SDS011;1322;53.256;10.386;2023-01-10T16:13:24;26.13;;;13.80;;
2624;SDS011;1322;53.256;10.386;2023-01-10T16:15:54;37.07;;;14.07;;
2624;SDS011;1322;53.256;10.386;2023-01-10T16:18:20;15.60;;;8.00;;
2624;SDS011;1322;53.256;10.386;2023-01-10T16:20:46;26.33;;;9.00;;
2624;SDS011;1322;53.256;10.386;2023-01-10T16:23:18;18.23;;;9.00;;
2624;SDS011;1322;53.256;10.386;2023-01-10T16:25:48;18.23;;;8.37;;
2624;SDS011;1322;53.256;10.386;2023-01-10T16:28:16;18.53;;;8.73;;
2624;SDS011;1322;53.256;10.386;2023-01-10T16:30:44;20.83;;;9.50;;
2624;SDS011;1322;53.256;10.386;2023-01-10T16:33:17;18.80;;;8.30;;
2624;SDS011;1322;53.256;10.386;2023-01-10T16:35:47;16.43;;;8.80;;
2624;SDS011;1322;53.256;10.386;2023-01-10T16:38:17;20.57;;;8.80;;
2624;SDS011;1322;53.256;10.386;2023-01-10T16:40:47;21.63;;;10.27;;
2624;SDS011;1322;53.256;10.386;2023-01-10T16:43:24;24.83;;;8.50;;
2624;SDS011;1322;53.256;10.386;2023-01-10T16:45:51;17.73;;;9.30;;
2624;SDS011;1322;53.256;10.386;2023-01-10T16:48:24;19.90;;;10.50;;
2624;SDS011;1322;53.256;10.386;2023-01-10T16:50:51;20.00;;;9.27;;
2624;SDS011;1322;53.256;10.386;2023-01-10T16:53:17;24.40;;;8.50;;
2624;SDS011;1322;53.256;10.386;2023-01-10T16:58:12;16.27;;;8.63;;
2624;SDS011;1322;53.256;10.386;2023-01-10T17:00:41;13.83;;;9.43;;